createdAt,value
2017-10-15T00:01:11.810Z,75.70
2017-10-15T00:03:40.083Z,74.40
2017-10-15T00:06:08.329Z,75.20
2017-10-15T00:08:36.578Z,75.50
2017-10-15T00:11:05.582Z,74.10
2017-10-15T00:13:33.843Z,77.10
2017-10-15T00:16:02.078Z,75.80
2017-10-15T00:18:30.369Z,78.40
2017-10-15T00:20:58.606Z,76.90
2017-10-15T00:23:26.859Z,76.10
2017-10-15T00:25:55.131Z,78.70
2017-10-15T00:28:23.384Z,77.30
2017-10-15T00:30:51.634Z,78.50
2017-10-15T00:33:20.242Z,78.20
2017-10-15T00:35:48.538Z,77.90
2017-10-15T00:38:16.767Z,77.70
2017-10-15T00:40:45.058Z,77.50
2017-10-15T00:43:13.302Z,76.70
2017-10-15T00:45:42.311Z,75.90
2017-10-15T00:48:10.579Z,75.90
2017-10-15T00:50:39.704Z,77.10
2017-10-15T00:53:08.106Z,77.00
2017-10-15T00:55:36.518Z,75.80
2017-10-15T00:58:05.791Z,78.50
2017-10-15T01:00:34.018Z,78.40
2017-10-15T01:03:02.322Z,77.90
2017-10-15T01:05:30.563Z,77.90
2017-10-15T01:07:59.574Z,79.40
2017-10-15T01:10:27.847Z,79.30
2017-10-15T01:12:56.516Z,79.60
2017-10-15T01:15:24.762Z,79.20
2017-10-15T01:17:53.314Z,80.40
2017-10-15T01:20:21.817Z,78.30
2017-10-15T01:22:50.050Z,78.50
2017-10-15T01:25:18.318Z,80.10
2017-10-15T01:27:46.619Z,80.30
2017-10-15T01:30:14.866Z,79.20
2017-10-15T01:32:43.901Z,79.40
2017-10-15T01:35:12.154Z,79.60
2017-10-15T01:37:40.402Z,80.00
2017-10-15T01:40:09.034Z,80.30
2017-10-15T01:42:37.285Z,80.30
2017-10-15T01:45:05.533Z,79.30
2017-10-15T01:47:36.894Z,80.20
2017-10-15T01:50:05.902Z,80.80
2017-10-15T01:52:34.912Z,79.50
2017-10-15T01:55:03.182Z,79.50
2017-10-15T01:57:31.434Z,79.30
2017-10-15T01:59:59.674Z,80.00
2017-10-15T02:02:28.352Z,79.80
2017-10-15T02:04:56.590Z,79.80
2017-10-15T02:07:24.850Z,79.90
2017-10-15T02:09:54.007Z,79.50
2017-10-15T02:12:22.234Z,79.50
2017-10-15T02:14:50.910Z,81.20
2017-10-15T02:17:19.955Z,79.90
2017-10-15T02:19:48.199Z,79.70
2017-10-15T02:22:16.521Z,84.60
2017-10-15T02:24:45.070Z,82.80
2017-10-15T02:27:13.322Z,79.40
2017-10-15T02:29:41.569Z,85.90
2017-10-15T02:32:09.846Z,85.10
2017-10-15T02:34:38.090Z,83.70
2017-10-15T02:37:06.337Z,83.30
2017-10-15T02:39:34.602Z,82.20
2017-10-15T02:42:03.613Z,80.90
2017-10-15T02:44:31.862Z,80.90
2017-10-15T02:47:00.560Z,82.10
2017-10-15T02:49:28.803Z,84.40
2017-10-15T02:51:57.055Z,84.50
2017-10-15T02:54:25.378Z,83.70
2017-10-15T02:56:53.659Z,84.00
2017-10-15T02:59:22.678Z,86.30
2017-10-15T03:01:50.955Z,86.10
2017-10-15T03:04:19.205Z,84.20
2017-10-15T03:06:47.653Z,84.20
2017-10-15T03:09:16.214Z,84.40
2017-10-15T03:11:44.462Z,87.00
2017-10-15T03:14:12.710Z,84.70
2017-10-15T03:16:41.338Z,83.20
2017-10-15T03:19:09.583Z,85.20
2017-10-15T03:21:37.832Z,87.70
2017-10-15T03:24:06.098Z,89.10
2017-10-15T03:26:34.555Z,88.50
2017-10-15T03:29:02.797Z,87.00
2017-10-15T03:31:31.954Z,86.50
2017-10-15T03:34:00.206Z,86.50
2017-10-15T03:36:28.446Z,87.80
2017-10-15T03:38:56.726Z,85.00
2017-10-15T03:41:25.741Z,86.40
2017-10-15T03:43:53.994Z,86.20
2017-10-15T03:46:23.091Z,85.10
2017-10-15T03:48:52.368Z,85.50
2017-10-15T03:51:20.619Z,85.40
2017-10-15T03:53:49.052Z,85.50
2017-10-15T03:56:18.116Z,84.60
2017-10-15T03:58:46.362Z,84.60
2017-10-15T04:01:14.642Z,84.50
2017-10-15T04:03:42.893Z,86.20
2017-10-15T04:06:11.150Z,86.20
2017-10-15T04:08:40.189Z,84.40
2017-10-15T04:11:08.437Z,84.30
2017-10-15T04:13:36.690Z,85.50
2017-10-15T04:16:05.029Z,88.10
2017-10-15T04:18:33.841Z,85.20
2017-10-15T04:21:02.096Z,85.80
2017-10-15T04:23:30.372Z,86.40
2017-10-15T04:25:58.618Z,87.30
2017-10-15T04:28:26.873Z,88.70
2017-10-15T04:30:56.123Z,85.50
2017-10-15T04:33:24.371Z,85.40
2017-10-15T04:35:52.625Z,86.00
2017-10-15T04:38:21.163Z,86.00
2017-10-15T04:40:49.422Z,88.60
2017-10-15T04:43:17.670Z,88.40
2017-10-15T04:45:46.386Z,88.40
2017-10-15T04:48:14.634Z,88.70
2017-10-15T04:50:42.878Z,90.40
2017-10-15T04:53:11.164Z,89.60
2017-10-15T04:55:41.358Z,87.50
2017-10-15T04:58:09.597Z,87.40
2017-10-15T05:00:38.118Z,89.30
2017-10-15T05:03:06.367Z,88.20
2017-10-15T05:05:34.610Z,87.00
2017-10-15T05:08:03.641Z,87.20
2017-10-15T05:10:31.890Z,87.10
2017-10-15T05:13:00.130Z,86.60
2017-10-15T05:15:28.401Z,87.00
2017-10-15T05:17:56.650Z,89.00
2017-10-15T05:20:25.461Z,88.70
2017-10-15T05:22:53.824Z,88.10
2017-10-15T05:25:22.223Z,87.20
2017-10-15T05:27:50.475Z,86.20
2017-10-15T05:30:18.746Z,86.60
2017-10-15T05:32:46.998Z,87.50
2017-10-15T05:35:15.251Z,86.60
2017-10-15T05:37:43.526Z,85.20
2017-10-15T05:40:12.547Z,85.00
2017-10-15T05:42:40.795Z,85.80
2017-10-15T05:45:09.263Z,85.50
2017-10-15T05:47:37.506Z,87.30
2017-10-15T05:50:05.757Z,86.00
2017-10-15T05:52:34.023Z,84.40
2017-10-15T05:55:02.267Z,84.80
2017-10-15T05:57:30.514Z,85.30
2017-10-15T05:59:59.087Z,83.80
2017-10-15T06:02:27.325Z,84.00
2017-10-15T06:04:56.347Z,84.90
2017-10-15T06:07:24.682Z,84.70
2017-10-15T06:09:52.982Z,84.00
2017-10-15T06:12:21.209Z,84.30
2017-10-15T06:14:49.476Z,83.50
2017-10-15T06:17:17.710Z,84.10
2017-10-15T06:19:45.956Z,83.50
2017-10-15T06:22:14.666Z,83.50
2017-10-15T06:24:43.686Z,84.20
2017-10-15T06:27:11.939Z,84.20
2017-10-15T06:29:41.158Z,84.80
2017-10-15T06:32:09.408Z,84.60
2017-10-15T06:34:38.422Z,84.50
2017-10-15T06:37:06.690Z,84.40
2017-10-15T06:39:35.703Z,84.80
2017-10-15T06:42:03.954Z,84.90
2017-10-15T06:44:32.990Z,84.10
2017-10-15T06:47:01.242Z,84.10
2017-10-15T06:49:29.499Z,84.70
2017-10-15T06:51:58.947Z,85.80
2017-10-15T06:54:27.207Z,84.90
2017-10-15T06:56:55.459Z,84.00
2017-10-15T06:59:23.742Z,84.10
2017-10-15T07:01:52.759Z,85.20
2017-10-15T07:04:21.001Z,85.40
2017-10-15T07:06:50.046Z,85.80
2017-10-15T07:09:18.450Z,86.70
2017-10-15T07:11:46.699Z,87.00
2017-10-15T07:14:15.281Z,85.60
2017-10-15T07:16:43.535Z,86.80
2017-10-15T07:19:11.968Z,87.60
2017-10-15T07:21:40.370Z,88.50
2017-10-15T07:24:09.679Z,87.80
2017-10-15T07:26:38.950Z,88.20
2017-10-15T07:29:07.231Z,88.20
2017-10-15T07:31:35.478Z,87.00
2017-10-15T07:34:03.725Z,88.90
2017-10-15T07:36:32.234Z,88.40
2017-10-15T07:39:00.486Z,89.00
2017-10-15T07:41:28.738Z,87.60
2017-10-15T07:43:57.018Z,86.70
2017-10-15T07:46:25.280Z,87.80
2017-10-15T07:48:53.523Z,87.40
2017-10-15T07:51:21.920Z,87.00
2017-10-15T07:53:50.182Z,87.10
2017-10-15T07:56:18.432Z,86.40
2017-10-15T07:58:47.026Z,86.70
2017-10-15T08:01:15.284Z,86.00
2017-10-15T08:03:43.534Z,85.90
2017-10-15T08:06:11.810Z,85.90
2017-10-15T08:08:40.832Z,86.80
2017-10-15T08:11:09.084Z,86.60
2017-10-15T08:13:37.354Z,86.20
2017-10-15T08:16:05.602Z,87.30
2017-10-15T08:18:33.871Z,88.20
2017-10-15T08:21:03.406Z,89.60
2017-10-15T08:23:31.665Z,90.20
2017-10-15T08:25:59.919Z,88.30
2017-10-15T08:28:28.216Z,86.80
2017-10-15T08:30:56.462Z,86.60
2017-10-15T08:33:24.898Z,86.40
2017-10-15T08:35:53.194Z,87.50
2017-10-15T08:38:21.442Z,89.50
2017-10-15T08:40:49.699Z,89.40
2017-10-15T08:43:18.158Z,89.80
2017-10-15T08:45:46.418Z,89.50
2017-10-15T08:48:14.671Z,89.40
2017-10-15T08:50:42.950Z,88.10
2017-10-15T08:53:11.194Z,84.40
2017-10-15T08:55:39.446Z,83.10
2017-10-15T08:58:07.717Z,81.60
2017-10-15T09:00:35.970Z,79.30
2017-10-15T09:03:04.223Z,79.30
2017-10-15T09:05:32.562Z,78.00
2017-10-15T09:08:00.810Z,78.10
2017-10-15T09:10:29.122Z,77.80
2017-10-15T09:12:57.396Z,78.20
2017-10-15T09:15:25.649Z,78.60
2017-10-15T09:17:53.898Z,79.10
2017-10-15T09:20:22.171Z,80.20
2017-10-15T09:22:50.437Z,79.40
2017-10-15T09:25:19.303Z,81.30
2017-10-15T09:27:47.798Z,84.10
2017-10-15T09:30:16.047Z,86.20
2017-10-15T09:32:44.298Z,87.50
2017-10-15T09:35:12.570Z,88.10
2017-10-15T09:37:40.832Z,88.30
2017-10-15T09:40:09.074Z,88.40
2017-10-15T09:42:37.350Z,81.90
2017-10-15T09:45:05.594Z,75.70
2017-10-15T09:47:33.858Z,73.10
2017-10-15T09:50:02.554Z,69.00
2017-10-15T09:52:30.809Z,71.00
2017-10-15T09:54:59.058Z,65.70
2017-10-15T09:57:28.102Z,60.40
2017-10-15T09:59:56.367Z,60.30
2017-10-15T10:02:24.615Z,60.00
2017-10-15T10:04:52.901Z,59.20
2017-10-15T10:07:21.154Z,58.90
2017-10-15T10:09:50.329Z,58.40
2017-10-15T10:12:18.663Z,57.80
2017-10-15T10:14:46.915Z,55.10
2017-10-15T10:17:15.930Z,54.70
2017-10-15T10:19:44.210Z,54.50
2017-10-15T10:22:12.467Z,54.80
2017-10-15T10:24:41.482Z,56.30
2017-10-15T10:27:10.204Z,56.30
2017-10-15T10:29:38.450Z,56.30
2017-10-15T10:32:06.702Z,55.00
2017-10-15T10:34:35.535Z,55.30
2017-10-15T10:37:03.790Z,52.70
2017-10-15T10:39:32.103Z,51.90
2017-10-15T10:42:00.364Z,53.00
2017-10-15T10:44:28.632Z,53.20
2017-10-15T10:46:56.873Z,52.60
2017-10-15T10:49:25.926Z,51.30
2017-10-15T10:51:54.172Z,51.20
2017-10-15T10:54:22.426Z,49.50
2017-10-15T10:56:50.805Z,48.00
2017-10-15T10:59:19.059Z,47.80
2017-10-15T11:01:47.310Z,46.70
2017-10-15T11:04:15.583Z,48.30
2017-10-15T11:06:43.838Z,47.90
2017-10-15T11:09:12.092Z,46.00
2017-10-15T11:11:40.361Z,47.40
2017-10-15T11:14:08.661Z,45.70
2017-10-15T11:16:36.909Z,44.70
2017-10-15T11:19:05.586Z,46.10
2017-10-15T11:21:37.739Z,45.90
2017-10-15T11:24:06.014Z,43.10
2017-10-15T11:26:34.267Z,44.80
2017-10-15T11:29:02.923Z,42.30
2017-10-15T11:31:31.197Z,43.10
2017-10-15T11:33:59.451Z,43.10
2017-10-15T11:36:28.470Z,41.20
2017-10-15T11:38:56.802Z,41.20
2017-10-15T11:41:25.059Z,42.70
2017-10-15T11:43:53.308Z,43.50
2017-10-15T11:46:21.586Z,42.30
2017-10-15T11:48:49.834Z,42.30
2017-10-15T11:51:18.094Z,40.00
2017-10-15T11:53:46.375Z,39.20
2017-10-15T11:56:14.663Z,40.50
2017-10-15T11:58:42.901Z,38.40
2017-10-15T12:01:11.646Z,38.50
2017-10-15T12:03:39.896Z,40.20
2017-10-15T12:06:08.926Z,40.40
2017-10-15T12:08:37.202Z,40.30
2017-10-15T12:11:05.450Z,41.20
2017-10-15T12:13:34.470Z,39.10
2017-10-15T12:16:02.751Z,39.10
2017-10-15T12:18:31.994Z,38.60
2017-10-15T12:21:00.246Z,38.60
2017-10-15T12:23:28.578Z,39.30
2017-10-15T12:25:57.597Z,36.40
2017-10-15T12:28:25.846Z,36.40
2017-10-15T12:30:55.150Z,35.80
2017-10-15T12:33:24.158Z,37.30
2017-10-15T12:35:52.405Z,37.30
2017-10-15T12:38:20.754Z,37.50
2017-10-15T12:40:48.978Z,35.60
2017-10-15T12:43:17.995Z,35.00
2017-10-15T12:45:46.340Z,35.10
2017-10-15T12:48:15.399Z,32.80
2017-10-15T12:50:43.634Z,32.80
2017-10-15T12:53:12.099Z,35.80
2017-10-15T12:55:41.123Z,32.80
2017-10-15T12:58:09.370Z,32.90
2017-10-15T13:00:37.666Z,32.60
2017-10-15T13:03:05.925Z,32.10
2017-10-15T13:05:34.938Z,32.60
2017-10-15T13:08:03.432Z,32.70
2017-10-15T13:10:31.678Z,34.10
2017-10-15T13:13:00.709Z,31.80
2017-10-15T13:15:28.974Z,31.60
2017-10-15T13:17:57.239Z,32.70
2017-10-15T13:20:25.478Z,33.10
2017-10-15T13:22:53.768Z,32.70
2017-10-15T13:25:22.007Z,32.80
2017-10-15T13:27:50.253Z,32.40
2017-10-15T13:30:18.578Z,32.10
2017-10-15T13:32:47.089Z,31.70
2017-10-15T13:35:16.105Z,32.40
2017-10-15T13:37:44.382Z,32.40
2017-10-15T13:40:12.807Z,32.10
2017-10-15T13:42:41.058Z,30.60
2017-10-15T13:45:10.529Z,30.30
2017-10-15T13:47:39.542Z,31.00
2017-10-15T13:50:07.869Z,31.00
2017-10-15T13:52:36.311Z,30.90
2017-10-15T13:55:04.810Z,30.40
2017-10-15T13:57:33.030Z,30.30
2017-10-15T14:00:02.062Z,30.00
2017-10-15T14:02:30.371Z,30.00
2017-10-15T14:05:01.811Z,29.40
2017-10-15T14:07:30.226Z,30.00
2017-10-15T14:09:59.512Z,29.10
2017-10-15T14:12:27.879Z,31.70
2017-10-15T14:14:56.214Z,30.90
2017-10-15T14:17:24.745Z,30.80
2017-10-15T14:19:53.075Z,30.80
2017-10-15T14:22:21.334Z,30.50
2017-10-15T14:24:49.577Z,30.00
2017-10-15T14:27:17.845Z,29.10
2017-10-15T14:29:46.251Z,29.80
2017-10-15T14:32:15.522Z,30.00
2017-10-15T14:34:44.509Z,29.90
2017-10-15T14:37:13.932Z,28.80
2017-10-15T14:39:42.199Z,29.80
2017-10-15T14:42:10.654Z,30.40
2017-10-15T14:44:38.989Z,29.30
2017-10-15T14:47:08.006Z,30.50
2017-10-15T14:49:36.338Z,30.40
2017-10-15T14:52:04.739Z,29.50
2017-10-15T14:54:34.450Z,30.00
2017-10-15T14:57:02.706Z,30.50
2017-10-15T14:59:31.134Z,30.20
2017-10-15T15:01:59.478Z,29.80
2017-10-15T15:04:27.718Z,29.20
2017-10-15T15:06:55.985Z,29.80
2017-10-15T15:09:24.287Z,29.90
2017-10-15T15:11:53.580Z,31.00
2017-10-15T15:14:22.655Z,29.80
2017-10-15T15:16:50.962Z,29.80
2017-10-15T15:19:19.343Z,31.60
2017-10-15T15:21:48.103Z,33.30
2017-10-15T15:24:16.354Z,34.70
2017-10-15T15:26:44.773Z,34.00
2017-10-15T15:29:13.189Z,32.60
2017-10-15T15:31:42.202Z,33.40
2017-10-15T15:34:10.537Z,33.40
2017-10-15T15:36:39.558Z,34.20
2017-10-15T15:39:09.869Z,37.00
2017-10-15T15:41:38.130Z,36.90
2017-10-15T15:44:07.514Z,37.90
2017-10-15T15:46:35.819Z,38.70
2017-10-15T15:49:04.189Z,39.30
2017-10-15T15:51:32.970Z,39.80
2017-10-15T15:54:01.423Z,41.00
2017-10-15T15:56:30.866Z,41.20
2017-10-15T15:59:00.189Z,41.50
2017-10-15T16:01:30.390Z,42.60
2017-10-15T16:03:58.767Z,42.60
2017-10-15T16:06:27.653Z,42.90
2017-10-15T16:08:57.114Z,43.60
2017-10-15T16:11:27.589Z,43.80
2017-10-15T16:13:56.004Z,44.60
2017-10-15T16:16:26.178Z,45.10
2017-10-15T16:18:54.572Z,45.10
2017-10-15T16:21:23.026Z,45.80
2017-10-15T16:23:51.322Z,46.20
2017-10-15T16:26:19.739Z,46.00
2017-10-15T16:28:50.007Z,46.80
2017-10-15T16:31:18.306Z,46.70
2017-10-15T16:33:46.691Z,47.50
2017-10-15T16:36:15.259Z,48.50
2017-10-15T16:38:43.503Z,48.40
2017-10-15T16:41:12.744Z,48.30
2017-10-15T16:43:41.145Z,48.60
2017-10-15T16:46:10.158Z,49.50
2017-10-15T16:48:38.502Z,49.50
2017-10-15T16:51:08.184Z,49.80
2017-10-15T16:53:40.274Z,50.30
2017-10-15T16:56:16.222Z,52.30
2017-10-15T16:58:44.730Z,53.10
2017-10-15T17:01:12.990Z,52.40
2017-10-15T17:03:41.435Z,52.20
2017-10-15T17:06:09.738Z,51.90
2017-10-15T17:08:39.054Z,51.70
2017-10-15T17:11:07.518Z,51.80
2017-10-15T17:13:35.811Z,53.00
2017-10-15T17:16:04.230Z,52.30
2017-10-15T17:18:32.592Z,52.70
2017-10-15T17:21:01.603Z,53.50
2017-10-15T17:23:29.946Z,53.50
2017-10-15T17:26:01.587Z,53.50
2017-10-15T17:28:29.830Z,54.90
2017-10-15T17:31:00.306Z,53.80
2017-10-15T17:33:29.056Z,54.60
2017-10-15T17:35:57.577Z,56.00
2017-10-15T17:38:27.618Z,55.70
2017-10-15T17:40:56.765Z,55.10
2017-10-15T17:43:24.990Z,55.10
2017-10-15T17:45:54.031Z,56.30
2017-10-15T17:48:23.633Z,56.30
2017-10-15T17:50:51.943Z,57.10
2017-10-15T17:53:20.322Z,56.10
2017-10-15T17:55:48.923Z,56.10
2017-10-15T17:58:17.394Z,55.80
2017-10-15T18:00:45.815Z,56.50
2017-10-15T18:03:14.166Z,58.40
2017-10-15T18:05:43.206Z,57.30
2017-10-15T18:08:11.514Z,57.30
2017-10-15T18:10:39.915Z,58.00
2017-10-15T18:13:08.939Z,59.00
2017-10-15T18:15:37.272Z,59.00
2017-10-15T18:18:06.078Z,58.30
2017-10-15T18:20:34.335Z,59.80
2017-10-15T18:23:02.598Z,59.40
2017-10-15T18:25:30.873Z,58.40
2017-10-15T18:27:59.174Z,58.40
2017-10-15T18:30:27.550Z,61.90
2017-10-15T18:32:55.826Z,61.80
2017-10-15T18:35:24.319Z,61.90
2017-10-15T18:37:53.355Z,59.40
2017-10-15T18:40:21.935Z,59.40
2017-10-15T18:42:50.678Z,59.40
2017-10-15T18:45:19.053Z,59.70
2017-10-15T18:47:47.467Z,60.40
2017-10-15T18:50:15.832Z,60.10
2017-10-15T18:52:44.191Z,60.40
2017-10-15T18:55:12.597Z,60.70
2017-10-15T18:57:41.612Z,60.50
2017-10-15T19:00:10.862Z,60.50
2017-10-15T19:02:39.645Z,60.30
2017-10-15T19:05:07.922Z,60.80
2017-10-15T19:07:36.185Z,61.80
2017-10-15T19:10:04.461Z,63.10
2017-10-15T19:12:32.720Z,61.30
2017-10-15T19:15:01.133Z,64.30
2017-10-15T19:17:29.398Z,62.20
2017-10-15T19:19:57.645Z,63.70
2017-10-15T19:22:25.895Z,62.30
2017-10-15T19:24:54.411Z,63.00
2017-10-15T19:27:22.654Z,64.80
2017-10-15T19:29:50.901Z,65.60
2017-10-15T19:32:19.166Z,67.10
2017-10-15T19:34:47.433Z,65.80
2017-10-15T19:37:15.669Z,65.30
2017-10-15T19:39:44.367Z,68.10
2017-10-15T19:42:12.615Z,65.20
2017-10-15T19:44:40.951Z,64.80
2017-10-15T19:47:09.406Z,66.00
2017-10-15T19:49:37.659Z,66.60
2017-10-15T19:52:05.897Z,66.70
2017-10-15T19:54:34.166Z,67.10
2017-10-15T19:57:02.417Z,66.90
2017-10-15T19:59:30.669Z,68.10
2017-10-15T20:01:59.009Z,69.40
2017-10-15T20:04:28.746Z,68.70
2017-10-15T20:06:57.758Z,68.40
2017-10-15T20:09:26.297Z,68.40
2017-10-15T20:11:54.549Z,67.80
2017-10-15T20:14:22.792Z,68.90
2017-10-15T20:16:51.102Z,69.90
2017-10-15T20:19:19.343Z,69.40
2017-10-15T20:21:47.594Z,68.50
2017-10-15T20:24:15.872Z,68.50
2017-10-15T20:26:44.887Z,68.00
2017-10-15T20:29:13.138Z,67.80
2017-10-15T20:31:42.334Z,71.70
2017-10-15T20:34:11.347Z,70.70
2017-10-15T20:36:39.583Z,70.30
2017-10-15T20:39:08.794Z,69.50
2017-10-15T20:41:37.501Z,70.30
2017-10-15T20:44:06.536Z,69.40
2017-10-15T20:46:34.809Z,69.30
2017-10-15T20:49:03.046Z,70.20
2017-10-15T20:51:31.298Z,70.80
2017-10-15T20:54:00.056Z,69.30
2017-10-15T20:56:28.306Z,69.80
2017-10-15T20:58:56.555Z,70.00
2017-10-15T21:01:27.907Z,70.10
2017-10-15T21:03:56.915Z,70.60
2017-10-15T21:06:25.926Z,72.30
2017-10-15T21:08:54.205Z,72.20
2017-10-15T21:11:22.446Z,71.90
2017-10-15T21:13:50.698Z,71.90
2017-10-15T21:16:19.458Z,71.60
2017-10-15T21:18:47.710Z,70.80
2017-10-15T21:21:15.958Z,71.20
2017-10-15T21:23:44.997Z,70.50
2017-10-15T21:26:13.258Z,70.60
2017-10-15T21:28:41.506Z,70.00
2017-10-15T21:31:10.548Z,72.50
2017-10-15T21:33:38.797Z,72.40
2017-10-15T21:36:07.046Z,73.50
2017-10-15T21:38:35.404Z,73.60
2017-10-15T21:41:03.794Z,75.10
2017-10-15T21:43:32.206Z,75.20
2017-10-15T21:46:01.239Z,75.30
2017-10-15T21:48:29.490Z,75.20
2017-10-15T21:50:57.734Z,77.40
2017-10-15T21:53:25.999Z,73.90
2017-10-15T21:55:54.245Z,73.30
2017-10-15T21:58:22.482Z,74.20
2017-10-15T22:00:51.658Z,72.20
2017-10-15T22:03:19.909Z,72.20
2017-10-15T22:05:48.150Z,76.60
2017-10-15T22:08:16.418Z,72.10
2017-10-15T22:10:44.673Z,73.80
2017-10-15T22:13:13.686Z,73.80
2017-10-15T22:15:42.716Z,74.20
2017-10-15T22:18:16.636Z,74.20
2017-10-15T22:20:50.683Z,75.40
2017-10-15T22:23:19.693Z,76.70
2017-10-15T22:25:47.947Z,76.60
2017-10-15T22:28:16.217Z,76.30
2017-10-15T22:30:44.467Z,75.50
2017-10-15T22:33:12.715Z,74.40
2017-10-15T22:35:40.990Z,75.60
2017-10-15T22:38:09.242Z,73.20
2017-10-15T22:40:37.490Z,74.20
2017-10-15T22:43:05.877Z,73.70
2017-10-15T22:45:34.282Z,74.60
2017-10-15T22:48:03.299Z,74.90
2017-10-15T22:50:32.337Z,74.40
2017-10-15T22:53:00.589Z,74.40
2017-10-15T22:55:28.834Z,78.80
2017-10-15T22:57:57.103Z,76.90
2017-10-15T23:00:26.116Z,75.80
2017-10-15T23:02:54.366Z,75.70
2017-10-15T23:05:22.755Z,77.70
2017-10-15T23:07:51.002Z,77.90
2017-10-15T23:10:19.254Z,74.30
2017-10-15T23:12:47.519Z,75.20
2017-10-15T23:15:15.775Z,77.10
2017-10-15T23:17:44.017Z,75.10
2017-10-15T23:20:13.046Z,74.30
2017-10-15T23:22:41.298Z,74.30
2017-10-15T23:25:10.314Z,75.20
2017-10-15T23:27:38.647Z,75.00
2017-10-15T23:30:06.897Z,76.70
2017-10-15T23:32:35.142Z,75.60
2017-10-15T23:35:03.419Z,74.20
2017-10-15T23:37:31.662Z,75.90
2017-10-15T23:40:00.675Z,76.90
2017-10-15T23:42:28.942Z,76.90
2017-10-15T23:44:57.955Z,78.20
2017-10-15T23:47:26.370Z,78.20
2017-10-15T23:49:54.709Z,77.30
2017-10-15T23:52:22.955Z,77.50
2017-10-15T23:54:51.201Z,74.50
2017-10-15T23:57:19.465Z,74.10
2017-10-15T23:59:47.719Z,77.90
